Time;durP1;ratioP1;P1;durP2;ratioP2;P2;SDS_P1;SDS_P2;PMS_P1;PMS_P2;Temp;Humidity;BMP_temperature;BMP_pressure;BME280_temperature;BME280_humidity;BME280_pressure;Samples;Min_cycle;Max_cycle;Signal;HPM_P1;HPM_P2
2022/08/21 00:00:42;;;;;;;5.68;3.47;;;;;;;16.43;100.00;101626.91;5296802;28;20035;-68
2022/08/21 00:03:13;;;;;;;6.47;4.38;;;;;;;16.39;100.00;101624.72;5297582;28;20068;-69
2022/08/21 00:05:49;;;;;;;8.50;3.88;;;;;;;16.41;100.00;101636.00;5297145;28;20058;-68
2022/08/21 00:08:20;;;;;;;6.50;4.20;;;;;;;16.33;100.00;101625.31;5296970;28;20023;-68
2022/08/21 00:10:52;;;;;;;7.90;3.92;;;;;;;16.29;100.00;101627.44;5277293;28;20024;-68
2022/08/21 00:13:23;;;;;;;6.72;3.72;;;;;;;16.30;100.00;101623.81;5294600;28;20127;-69
2022/08/21 00:15:55;;;;;;;6.35;4.10;;;;;;;16.24;100.00;101617.28;5297364;28;20059;-68
2022/08/21 00:18:26;;;;;;;6.70;4.38;;;;;;;16.36;100.00;101611.78;5297575;28;20020;-69
2022/08/21 00:20:58;;;;;;;7.13;3.80;;;;;;;16.24;100.00;101612.00;5296119;28;20106;-68
2022/08/21 00:23:29;;;;;;;7.07;4.18;;;;;;;16.22;100.00;101613.97;5294955;28;20052;-68
2022/08/21 00:26:01;;;;;;;6.57;4.13;;;;;;;16.26;100.00;101614.50;5296041;28;20274;-69
2022/08/21 00:28:32;;;;;;;8.82;4.43;;;;;;;16.20;100.00;101615.94;5296349;28;20016;-68
2022/08/21 00:31:04;;;;;;;6.15;4.03;;;;;;;16.23;100.00;101606.88;5294882;28;20057;-69
2022/08/21 00:33:35;;;;;;;7.53;3.83;;;;;;;16.22;100.00;101610.50;5300696;28;20024;-68
2022/08/21 00:36:07;;;;;;;7.60;3.90;;;;;;;16.20;100.00;101605.34;5301147;28;20030;-68
2022/08/21 00:38:39;;;;;;;5.93;3.90;;;;;;;16.16;100.00;101597.88;5301185;28;20111;-69
2022/08/21 00:41:11;;;;;;;5.53;3.72;;;;;;;16.21;100.00;101601.75;5299927;28;20025;-68
2022/08/21 00:43:42;;;;;;;6.25;4.38;;;;;;;16.13;100.00;101601.63;5299286;28;20065;-68
2022/08/21 00:46:13;;;;;;;6.55;4.38;;;;;;;16.11;100.00;101598.31;5282469;28;20020;-68
2022/08/21 00:48:45;;;;;;;6.10;4.60;;;;;;;16.10;100.00;101593.16;5301143;28;20020;-69
2022/08/21 00:51:25;;;;;;;7.13;4.35;;;;;;;16.19;100.00;101598.41;5300157;28;20020;-68
2022/08/21 00:54:00;;;;;;;6.53;4.45;;;;;;;16.15;100.00;101604.97;5281991;28;20027;-68
2022/08/21 00:56:32;;;;;;;6.55;4.47;;;;;;;16.05;100.00;101596.25;5298525;28;20031;-68
2022/08/21 00:59:04;;;;;;;5.93;3.90;;;;;;;16.01;100.00;101602.81;5299023;28;20200;-68
2022/08/21 01:01:37;;;;;;;8.23;4.60;;;;;;;16.02;100.00;101599.19;5282726;28;20028;-69
2022/08/21 01:04:08;;;;;;;8.90;4.77;;;;;;;16.00;100.00;101596.72;5300430;28;20054;-68
2022/08/21 01:06:39;;;;;;;5.55;4.25;;;;;;;15.90;100.00;101608.28;5280573;28;20463;-68
2022/08/21 01:09:12;;;;;;;5.70;4.53;;;;;;;15.85;100.00;101597.34;5299348;28;20031;-68
2022/08/21 01:11:43;;;;;;;6.07;4.63;;;;;;;15.87;100.00;101600.66;5282064;28;20398;-68
2022/08/21 01:14:15;;;;;;;5.45;4.50;;;;;;;15.79;100.00;101598.75;5299069;28;20023;-68
2022/08/21 01:16:49;;;;;;;8.02;4.50;;;;;;;15.72;100.00;101601.16;5299967;28;20080;-68
2022/08/21 01:19:22;;;;;;;8.35;4.53;;;;;;;15.68;100.00;101601.56;5297726;28;20090;-68
2022/08/21 01:21:54;;;;;;;6.43;4.30;;;;;;;15.64;100.00;101595.72;5300206;28;20570;-68
2022/08/21 01:24:26;;;;;;;6.35;4.95;;;;;;;15.58;100.00;101589.22;5300322;28;20020;-68
2022/08/21 01:26:58;;;;;;;6.80;5.15;;;;;;;15.64;100.00;101592.25;5279122;28;20489;-68
2022/08/21 01:29:45;;;;;;;8.13;4.90;;;;;;;15.81;100.00;101594.16;5300475;28;20034;-68
2022/08/21 01:32:19;;;;;;;6.35;4.70;;;;;;;15.75;100.00;101590.28;5296872;28;20767;-68
2022/08/21 01:34:51;;;;;;;10.80;5.43;;;;;;;15.53;100.00;101596.75;5299528;28;20051;-68
2022/08/21 01:37:23;;;;;;;7.70;4.38;;;;;;;15.45;100.00;101593.13;5299389;28;20032;-68
2022/08/21 01:39:54;;;;;;;5.60;4.50;;;;;;;15.47;100.00;101596.47;5298100;28;20016;-68
2022/08/21 01:42:25;;;;;;;5.90;4.30;;;;;;;15.37;100.00;101601.78;5298939;28;20024;-68
2022/08/21 01:44:57;;;;;;;7.75;4.78;;;;;;;15.40;100.00;101606.78;5279994;28;20035;-68
2022/08/21 01:47:28;;;;;;;8.90;4.68;;;;;;;15.33;100.00;101597.75;5298958;28;20154;-68
2022/08/21 01:50:00;;;;;;;7.40;4.75;;;;;;;15.32;100.00;101598.75;5296481;28;20066;-68
2022/08/21 01:52:31;;;;;;;8.88;5.85;;;;;;;15.24;100.00;101585.41;5299951;28;20134;-68
2022/08/21 01:55:05;;;;;;;7.35;5.55;;;;;;;15.31;100.00;101595.28;5299229;28;20562;-68
2022/08/21 01:57:36;;;;;;;8.38;5.20;;;;;;;15.25;100.00;101589.72;5299199;28;20073;-68
2022/08/21 02:00:11;;;;;;;8.23;5.65;;;;;;;15.22;100.00;101585.53;5298684;28;20484;-68
2022/08/21 02:02:43;;;;;;;7.30;5.20;;;;;;;15.14;100.00;101577.50;5298977;28;20032;-68
2022/08/21 02:05:14;;;;;;;8.13;5.40;;;;;;;15.18;100.00;101576.25;5295987;28;20022;-68
2022/08/21 02:07:49;;;;;;;6.15;4.97;;;;;;;15.23;100.00;101578.50;5279531;28;20679;-68
2022/08/21 02:10:28;;;;;;;8.68;5.55;;;;;;;15.10;100.00;101573.50;5297865;28;20054;-68
2022/08/21 02:13:00;;;;;;;6.40;5.35;;;;;;;15.01;100.00;101571.72;5297689;28;20038;-68
2022/08/21 02:15:31;;;;;;;6.23;4.50;;;;;;;15.03;100.00;101575.84;5299985;28;20024;-69
2022/08/21 02:18:06;;;;;;;5.80;4.72;;;;;;;15.07;100.00;101565.84;5298335;28;20051;-68
2022/08/21 02:20:42;;;;;;;9.23;5.47;;;;;;;14.95;100.00;101557.25;5297487;28;20102;-68
2022/08/21 02:23:14;;;;;;;7.47;5.22;;;;;;;14.93;100.00;101561.03;5298013;28;20028;-68
2022/08/21 02:25:46;;;;;;;6.50;5.25;;;;;;;14.93;100.00;101558.41;5299107;28;20302;-68
2022/08/21 02:28:18;;;;;;;8.75;5.95;;;;;;;14.91;100.00;101574.34;5298622;28;20031;-68
2022/08/21 02:30:50;;;;;;;8.10;5.63;;;;;;;14.95;100.00;101573.09;5280527;28;20470;-68
2022/08/21 02:33:22;;;;;;;6.72;5.28;;;;;;;14.98;100.00;101580.72;5297428;28;20081;-68
2022/08/21 02:35:56;;;;;;;9.17;5.83;;;;;;;14.97;100.00;101572.97;5296816;28;20766;-68
2022/08/21 02:38:29;;;;;;;6.88;5.55;;;;;;;14.91;100.00;101574.34;5298511;28;20428;-68
2022/08/21 02:41:01;;;;;;;7.25;5.68;;;;;;;14.84;100.00;101560.88;5298637;28;20059;-68
2022/08/21 02:43:32;;;;;;;6.55;5.38;;;;;;;14.84;100.00;101565.31;5298852;28;20063;-68
2022/08/21 02:46:05;;;;;;;6.60;5.70;;;;;;;14.84;100.00;101560.06;5279714;28;20127;-68
2022/08/21 02:48:37;;;;;;;6.85;6.10;;;;;;;14.80;100.00;101570.06;5278210;28;20616;-69
2022/08/21 02:51:13;;;;;;;8.90;6.70;;;;;;;14.89;100.00;101556.97;5298781;28;20024;-68
2022/08/21 02:53:46;;;;;;;9.90;7.43;;;;;;;14.82;100.00;101559.38;5297033;28;20028;-68
2022/08/21 02:56:21;;;;;;;11.90;8.70;;;;;;;14.84;100.00;101565.31;5297893;28;20043;-68
2022/08/21 02:58:53;;;;;;;9.05;8.15;;;;;;;14.74;100.00;101544.25;5298410;28;20024;-68
2022/08/21 03:01:24;;;;;;;9.48;7.97;;;;;;;14.80;100.00;101562.13;5295200;28;20497;-68
2022/08/21 03:03:56;;;;;;;9.63;8.38;;;;;;;14.78;100.00;101561.47;5297191;28;20028;-68
2022/08/21 03:06:29;;;;;;;9.18;8.10;;;;;;;14.83;100.00;101559.22;5298436;28;20019;-68
2022/08/21 03:09:00;;;;;;;;;;;;;;;15.48;100.00;101563.81;5297856;28;20644;-69
2022/08/21 03:11:31;;;;;;;11.88;8.27;;;;;;;14.85;100.00;101559.09;5296565;28;19949;-68
2022/08/21 03:14:05;;;;;;;13.73;8.80;;;;;;;14.78;100.00;101561.47;5298352;28;20063;-68
2022/08/21 03:16:36;;;;;;;9.40;7.70;;;;;;;14.77;100.00;101557.16;5298249;28;20039;-68
2022/08/21 03:19:07;;;;;;;9.30;7.95;;;;;;;14.83;100.00;101561.88;5297967;28;20028;-68
2022/08/21 03:21:39;;;;;;;9.18;7.50;;;;;;;14.77;100.00;101549.25;5296511;28;20026;-68
2022/08/21 03:24:10;;;;;;;8.95;7.38;;;;;;;14.77;100.00;101551.03;5296715;28;20096;-68
2022/08/21 03:26:41;;;;;;;11.27;7.55;;;;;;;14.76;100.00;101549.38;5298280;28;20024;-68
2022/08/21 03:29:13;;;;;;;11.05;7.82;;;;;;;14.70;100.00;101556.06;5296797;28;20026;-68
2022/08/21 03:31:44;;;;;;;8.45;7.55;;;;;;;14.72;100.00;101551.47;5297102;28;20078;-68
2022/08/21 03:34:15;;;;;;;10.25;7.22;;;;;;;14.75;100.00;101555.63;5297799;28;20020;-68
2022/08/21 03:36:48;;;;;;;9.55;7.25;;;;;;;14.69;100.00;101553.53;5278630;28;20482;-68
2022/08/21 03:39:20;;;;;;;9.13;6.63;;;;;;;14.64;100.00;101548.69;5297351;28;20027;-68
2022/08/21 03:41:52;;;;;;;9.13;7.00;;;;;;;14.71;100.00;101559.53;5296112;28;20034;-68
2022/08/21 03:44:23;;;;;;;11.13;7.80;;;;;;;14.64;100.00;101556.59;5296007;28;20049;-68
2022/08/21 03:46:56;;;;;;;11.43;7.47;;;;;;;14.53;100.00;101538.28;5297958;28;20046;-68
2022/08/21 03:49:27;;;;;;;9.70;7.40;;;;;;;14.62;100.00;101539.25;5278584;28;20040;-68
2022/08/21 03:52:00;;;;;;;8.45;7.63;;;;;;;14.64;100.00;101545.22;5297498;28;20077;-68
2022/08/21 03:54:31;;;;;;;11.52;7.45;;;;;;;14.57;100.00;101535.22;5297606;28;20026;-68
2022/08/21 03:57:02;;;;;;;10.40;8.13;;;;;;;14.54;100.00;101539.94;5294091;28;20024;-68
2022/08/21 03:59:34;;;;;;;8.77;7.57;;;;;;;14.51;100.00;101550.78;5295377;28;20061;-68
2022/08/21 04:02:07;;;;;;;8.93;6.95;;;;;;;14.50;100.00;101539.38;5295017;28;20032;-68
2022/08/21 04:04:38;;;;;;;9.97;8.07;;;;;;;14.53;100.00;101546.19;5295986;28;20024;-68
2022/08/21 04:07:09;;;;;;;10.68;6.95;;;;;;;14.57;100.00;101547.56;5296577;28;20032;-68
2022/08/21 04:09:40;;;;;;;14.05;8.05;;;;;;;14.50;100.00;101554.38;5296340;28;20031;-68
2022/08/21 04:12:12;;;;;;;12.68;8.15;;;;;;;14.49;100.00;101547.41;5294761;28;20032;-68
2022/08/21 04:14:43;;;;;;;9.77;7.60;;;;;;;14.48;100.00;101551.03;5296108;28;20039;-68
2022/08/21 04:17:14;;;;;;;9.70;7.70;;;;;;;14.42;100.00;101551.56;5278832;28;20460;-68
2022/08/21 04:19:46;;;;;;;9.13;8.00;;;;;;;14.41;100.00;101550.72;5296662;28;20106;-68
2022/08/21 04:22:17;;;;;;;9.02;8.05;;;;;;;14.39;100.00;101551.84;5296906;28;20065;-68
2022/08/21 04:24:48;;;;;;;13.55;7.65;;;;;;;14.42;100.00;101554.19;5295118;28;20642;-68
2022/08/21 04:27:19;;;;;;;10.20;7.30;;;;;;;14.38;100.00;101556.28;5296932;28;20409;-68
2022/08/21 04:29:51;;;;;;;10.05;7.65;;;;;;;14.39;100.00;101551.84;5295741;28;20034;-69
2022/08/21 04:32:25;;;;;;;8.98;7.15;;;;;;;14.42;100.00;101564.75;5297147;28;20069;-68
2022/08/21 04:35:02;;;;;;;10.18;6.70;;;;;;;14.42;100.00;101562.09;5295773;28;20050;-68
2022/08/21 04:37:34;;;;;;;11.50;7.10;;;;;;;14.31;100.00;101563.06;5279432;28;20518;-68
2022/08/21 04:40:06;;;;;;;9.98;7.70;;;;;;;14.32;100.00;101562.94;5295926;28;20138;-68
2022/08/21 04:42:43;;;;;;;11.43;7.70;;;;;;;14.49;100.00;101563.22;5296375;28;20113;-68
2022/08/21 04:45:24;;;;;;;9.23;7.28;;;;;;;14.42;100.00;101565.56;5295547;28;20020;-68
2022/08/21 04:47:58;;;;;;;7.65;6.72;;;;;;;14.38;100.00;101566.81;5296995;28;20035;-68
2022/08/21 04:50:45;;;;;;;9.30;7.05;;;;;;;14.50;100.00;101570.19;5277577;28;20044;-68
2022/08/21 04:53:20;;;;;;;9.75;7.50;;;;;;;14.42;100.00;101573.47;5297107;28;20417;-68
2022/08/21 04:55:54;;;;;;;9.52;7.03;;;;;;;14.36;100.00;101574.88;5296000;28;20453;-68
2022/08/21 04:58:27;;;;;;;11.48;7.65;;;;;;;14.33;100.00;101575.16;5289823;28;20032;-68
2022/08/21 05:01:00;;;;;;;10.52;6.93;;;;;;;14.34;100.00;101571.53;5284093;28;20027;-68
2022/08/21 05:03:34;;;;;;;10.63;7.32;;;;;;;14.34;100.00;101574.16;5296161;28;20035;-68
2022/08/21 05:06:08;;;;;;;8.32;7.20;;;;;;;14.34;100.00;101579.44;5297161;28;20024;-68
2022/08/21 05:08:43;;;;;;;10.73;7.28;;;;;;;14.35;100.00;101575.81;5295954;28;20090;-68
2022/08/21 05:11:14;;;;;;;9.10;6.53;;;;;;;14.33;100.00;101582.22;5278741;28;20024;-68
2022/08/21 05:13:46;;;;;;;9.25;7.35;;;;;;;14.36;100.00;101576.69;5296766;28;20053;-68
2022/08/21 05:16:18;;;;;;;10.38;7.28;;;;;;;14.36;100.00;101585.41;5295255;28;20036;-68
2022/08/21 05:18:50;;;;;;;9.60;6.82;;;;;;;14.38;100.00;101582.63;5279053;28;20020;-68
2022/08/21 05:21:21;;;;;;;8.88;6.50;;;;;;;14.42;100.00;101583.19;5299341;28;20031;-68
2022/08/21 05:23:52;;;;;;;12.50;6.47;;;;;;;14.44;100.00;101592.66;5300978;28;20016;-68
2022/08/21 05:26:23;;;;;;;11.15;7.00;;;;;;;14.46;100.00;101585.41;5290788;28;20421;-68
2022/08/21 05:28:55;;;;;;;11.65;7.07;;;;;;;14.49;100.00;101590.44;5300615;28;20077;-68
2022/08/21 05:31:27;;;;;;;8.98;6.50;;;;;;;14.48;100.00;101593.22;5300287;28;20022;-68
2022/08/21 05:33:58;;;;;;;7.28;6.43;;;;;;;14.56;100.00;101586.31;5298683;28;20027;-68
2022/08/21 05:36:30;;;;;;;8.88;6.60;;;;;;;14.58;100.00;101594.91;5281262;28;20089;-67
2022/08/21 05:39:02;;;;;;;11.15;6.63;;;;;;;14.57;100.00;101587.13;5298925;28;20039;-67
2022/08/21 05:41:33;;;;;;;9.40;6.20;;;;;;;14.65;100.00;101595.19;5298891;28;20492;-68
2022/08/21 05:44:05;;;;;;;11.18;6.20;;;;;;;14.64;100.00;101590.88;5282130;28;20027;-68
2022/08/21 05:46:36;;;;;;;8.10;6.20;;;;;;;14.69;100.00;101593.94;5299479;28;20498;-68
2022/08/21 05:49:08;;;;;;;9.45;6.68;;;;;;;14.71;100.00;101596.44;5279026;28;20051;-68
2022/08/21 05:51:41;;;;;;;10.63;6.20;;;;;;;14.76;100.00;101594.22;5296730;28;20093;-68
2022/08/21 05:54:12;;;;;;;10.68;6.05;;;;;;;14.79;100.00;101591.31;5300107;28;20146;-68
2022/08/21 05:56:44;;;;;;;9.68;6.05;;;;;;;14.80;100.00;101593.78;5300080;28;20143;-68
2022/08/21 05:59:15;;;;;;;9.95;6.05;;;;;;;14.83;100.00;101593.50;5298627;28;20012;-69
2022/08/21 06:01:47;;;;;;;8.93;5.82;;;;;;;14.87;100.00;101591.44;5299568;28;20125;-68
2022/08/21 06:04:19;;;;;;;11.23;5.90;;;;;;;14.91;100.00;101598.09;5297681;28;20028;-68
2022/08/21 06:06:50;;;;;;;9.73;6.18;;;;;;;14.94;100.00;101591.72;5298005;28;20501;-68
2022/08/21 06:09:21;;;;;;;13.60;6.97;;;;;;;15.02;100.00;101591.84;5299878;28;20020;-68
2022/08/21 06:11:52;;;;;;;12.15;5.90;;;;;;;15.12;100.00;101594.47;5298779;28;20061;-68
2022/08/21 06:14:24;;;;;;;9.32;5.80;;;;;;;15.13;100.00;101589.06;5298739;28;20482;-68
2022/08/21 06:17:04;;;;;;;8.60;5.85;;;;;;;15.32;100.00;101599.56;5299123;28;20095;-68
2022/08/21 06:19:36;;;;;;;12.52;6.38;;;;;;;15.34;100.00;101602.06;5296789;28;20032;-68
2022/08/21 06:22:07;;;;;;;7.22;5.55;;;;;;;15.43;100.00;101603.03;5289403;28;20047;-68
2022/08/21 06:24:39;;;;;;;9.73;5.90;;;;;;;15.56;100.00;101601.72;5276418;28;20039;-68
2022/08/21 06:27:11;;;;;;;13.82;6.57;;;;;;;15.66;100.00;101606.19;5297071;28;20024;-68
2022/08/21 06:29:42;;;;;;;10.13;5.68;;;;;;;15.74;100.00;101599.19;5296489;28;20026;-68
2022/08/21 06:32:13;;;;;;;15.10;6.57;;;;;;;15.87;100.00;101598.00;5292759;28;20081;-68
2022/08/21 06:34:45;;;;;;;10.07;5.47;;;;;;;15.99;100.00;101596.88;5279224;28;20119;-68
2022/08/21 06:37:16;;;;;;;10.15;5.40;;;;;;;16.12;100.00;101599.97;5297134;28;20062;-68
2022/08/21 06:39:48;;;;;;;10.88;5.32;;;;;;;16.25;100.00;101600.47;5275843;28;20043;-68
2022/08/21 06:42:19;;;;;;;9.50;5.10;;;;;;;16.44;100.00;101603.94;5296798;28;20024;-68
2022/08/21 06:44:50;;;;;;;14.38;4.65;;;;;;;16.54;100.00;101605.53;5298316;28;20032;-68
2022/08/21 06:47:22;;;;;;;11.70;6.07;;;;;;;16.63;100.00;101598.53;5297132;28;20076;-68
2022/08/21 06:49:53;;;;;;;10.93;4.67;;;;;;;16.77;100.00;101605.94;5296152;28;20126;-68
2022/08/21 06:52:25;;;;;;;10.52;5.28;;;;;;;16.91;100.00;101601.94;5280894;28;20302;-68
2022/08/21 06:54:56;;;;;;;9.77;4.97;;;;;;;17.00;100.00;101603.66;5297338;28;20024;-68
2022/08/21 06:57:27;;;;;;;8.43;5.00;;;;;;;17.15;100.00;101601.28;5297624;28;20020;-67
2022/08/21 06:59:58;;;;;;;11.98;5.05;;;;;;;17.27;100.00;101600.06;5297656;28;20492;-68
2022/08/21 07:02:30;;;;;;;12.48;5.38;;;;;;;17.43;100.00;101599.34;5297726;28;20509;-68
2022/08/21 07:05:01;;;;;;;13.00;5.50;;;;;;;17.58;100.00;101596.94;5297950;28;20569;-67
2022/08/21 07:07:32;;;;;;;8.73;5.30;;;;;;;17.69;100.00;101601.13;5298689;28;20024;-67
2022/08/21 07:10:04;;;;;;;13.20;4.93;;;;;;;17.85;100.00;101592.47;5296034;28;20097;-67
2022/08/21 07:12:36;;;;;;;9.15;4.72;;;;;;;18.06;100.00;101592.84;5297628;28;20024;-68
2022/08/21 07:15:07;;;;;;;10.18;5.07;;;;;;;18.24;100.00;101590.91;5279261;28;20024;-68
2022/08/21 07:17:39;;;;;;;10.18;4.80;;;;;;;18.38;100.00;101588.66;5280424;28;20456;-67
2022/08/21 07:20:11;;;;;;;11.88;5.05;;;;;;;18.59;100.00;101596.13;5277300;28;20030;-69
2022/08/21 07:22:42;;;;;;;11.03;4.70;;;;;;;18.65;100.00;101588.34;5295944;28;20066;-68
2022/08/21 07:25:13;;;;;;;10.15;4.82;;;;;;;18.83;100.00;101595.34;5294276;28;20410;-69
2022/08/21 07:27:45;;;;;;;10.27;4.43;;;;;;;18.90;100.00;101593.66;5290821;28;20711;-67
2022/08/21 07:30:16;;;;;;;12.03;4.97;;;;;;;18.96;100.00;101596.50;5295691;28;20019;-68
2022/08/21 07:32:51;;;;;;;16.55;5.47;;;;;;;19.06;100.00;101603.47;5297542;28;20486;-70
2022/08/21 07:35:23;;;;;;;10.60;4.78;;;;;;;19.00;100.00;101597.00;5296472;28;20109;-69
2022/08/21 07:37:54;;;;;;;14.60;4.30;;;;;;;19.09;100.00;101596.00;5295906;28;20472;-68
2022/08/21 07:40:25;;;;;;;11.05;4.85;;;;;;;19.26;100.00;101599.47;5278016;28;20027;-68
2022/08/21 07:42:56;;;;;;;11.77;4.70;;;;;;;19.41;100.00;101599.59;5295388;28;20099;-68
2022/08/21 07:45:28;;;;;;;10.33;4.00;;;;;;;19.46;100.00;101591.94;5286757;28;20028;-68
2022/08/21 07:48:00;;;;;;;11.23;4.03;;;;;;;19.57;100.00;101596.06;5285977;28;20113;-67
2022/08/21 07:50:31;;;;;;;8.27;3.83;;;;;;;19.85;100.00;101593.81;5294642;28;20153;-68
2022/08/21 07:53:03;;;;;;;10.93;4.90;;;;;;;19.81;100.00;101600.50;5297862;28;20119;-67
2022/08/21 07:55:35;;;;;;;11.85;4.00;;;;;;;19.85;100.00;101586.69;5296288;28;20045;-69
2022/08/21 07:58:06;;;;;;;11.40;3.95;;;;;;;19.97;100.00;101589.81;5295635;28;20495;-68
2022/08/21 08:00:39;;;;;;;11.43;4.13;;;;;;;20.07;100.00;101589.56;5296276;28;20077;-68
2022/08/21 08:03:10;;;;;;;11.20;4.15;;;;;;;20.24;100.00;101595.66;5276592;28;20459;-68
2022/08/21 08:05:41;;;;;;;9.53;3.30;;;;;;;20.37;100.00;101586.06;5282932;28;20044;-69
2022/08/21 08:08:12;;;;;;;9.97;3.53;;;;;;;20.57;100.00;101593.59;5292723;28;20016;-69
2022/08/21 08:10:45;;;;;;;7.93;3.23;;;;;;;20.51;100.00;101587.19;5281583;28;20119;-68
2022/08/21 08:13:16;;;;;;;6.75;2.80;;;;;;;20.64;100.00;101589.22;5287349;28;20071;-68
2022/08/21 08:15:48;;;;;;;10.37;3.80;;;;;;;20.76;100.00;101587.84;5290731;28;20052;-69
2022/08/21 08:18:20;;;;;;;10.18;3.78;;;;;;;20.90;100.00;101589.69;5294926;28;20098;-69
2022/08/21 08:20:52;;;;;;;17.57;4.70;;;;;;;20.99;100.00;101595.78;5295182;28;20204;-68
2022/08/21 08:23:23;;;;;;;9.60;3.27;;;;;;;21.16;100.00;101588.47;5293476;28;20398;-69
2022/08/21 08:25:54;;;;;;;11.47;3.53;;;;;;;21.35;100.00;101584.47;5292723;28;20024;-69
2022/08/21 08:28:27;;;;;;;8.33;3.00;;;;;;;21.50;100.00;101579.13;5284616;28;20020;-70
2022/08/21 08:30:59;;;;;;;10.43;3.65;;;;;;;21.52;100.00;101582.47;5289377;28;20020;-68
2022/08/21 08:33:30;;;;;;;8.57;3.15;;;;;;;21.47;100.00;101580.31;5288677;28;20028;-68
2022/08/21 08:36:03;;;;;;;10.47;2.97;;;;;;;21.64;100.00;101588.97;5290170;28;20035;-69
2022/08/21 08:38:34;;;;;;;8.82;3.08;;;;;;;21.82;100.00;101583.25;5287908;28;20028;-69
2022/08/21 08:41:14;;;;;;;7.93;2.63;;;;;;;22.19;100.00;101586.78;5294498;28;20036;-69
2022/08/21 08:43:54;;;;;;;9.60;3.60;;;;;;;22.28;100.00;101583.84;5279549;28;20047;-68
2022/08/21 08:46:35;;;;;;;8.40;2.85;;;;;;;22.31;100.00;101574.59;5297634;28;20028;-69
2022/08/21 08:49:13;;;;;;;7.60;2.60;;;;;;;22.41;100.00;101572.44;5296195;28;20405;-68
2022/08/21 08:51:51;;;;;;;7.53;3.08;;;;;;;22.50;100.00;101571.31;5297000;28;20498;-68
2022/08/21 08:54:33;;;;;;;9.15;3.00;;;;;;;22.78;100.00;101567.84;5281658;28;20032;-69
2022/08/21 08:57:10;;;;;;;8.07;2.80;;;;;;;22.90;100.00;101566.31;5300432;28;20389;-69
2022/08/21 08:59:44;;;;;;;9.65;2.95;;;;;;;23.07;99.21;101561.53;5300931;28;20052;-70
2022/08/21 09:02:16;;;;;;;9.10;2.65;;;;;;;22.98;95.43;101560.84;5298269;28;20027;-69
2022/08/21 09:04:50;;;;;;;9.82;2.40;;;;;;;23.07;94.89;101556.19;5282608;28;20097;-69
2022/08/21 09:07:30;;;;;;;8.65;2.60;;;;;;;23.10;92.46;101558.47;5292212;28;20111;-69
2022/08/21 09:10:18;;;;;;;8.63;2.53;;;;;;;23.05;91.70;101558.22;5281210;28;20054;-69
2022/08/21 09:13:17;;;;;;;7.78;2.10;;;;;;;22.97;91.79;101551.19;5300503;28;20024;-69
2022/08/21 09:15:51;;;;;;;7.07;2.17;;;;;;;22.71;90.22;101556.28;5298034;28;20161;-69
2022/08/21 09:18:55;;;;;;;6.45;1.92;;;;;;;23.05;85.31;101559.03;5281347;28;20052;-69
2022/08/21 09:21:40;;;;;;;9.20;2.10;;;;;;;22.98;88.10;101546.66;5269049;28;20102;-69
2022/08/21 09:24:26;;;;;;;7.85;2.63;;;;;;;23.30;84.83;101551.41;5281288;28;20357;-69
2022/08/21 09:27:09;;;;;;;9.13;2.80;;;;;;;23.44;84.52;101554.97;5299967;28;20032;-69
2022/08/21 09:29:45;;;;;;;;;;;;;;;24.03;77.11;101550.91;5297148;28;20032;-70
2022/08/21 09:32:26;;;;;;;7.25;2.13;;;;;;;23.85;76.78;101553.31;5297100;28;19938;-69
2022/08/21 09:35:00;;;;;;;6.20;2.17;;;;;;;23.81;76.57;101552.91;5298732;28;20559;-69
2022/08/21 09:37:35;;;;;;;8.05;2.08;;;;;;;24.03;73.58;101558.94;5295955;28;20036;-69
2022/08/21 09:40:22;;;;;;;9.27;2.40;;;;;;;24.32;76.76;101555.09;5295614;28;20035;-68
2022/08/21 09:42:57;;;;;;;8.57;2.58;;;;;;;24.31;72.28;101558.78;5279271;28;20069;-70
2022/08/21 09:45:30;;;;;;;6.75;2.17;;;;;;;24.43;73.85;101551.81;5294470;28;20489;-70
2022/08/21 09:48:22;;;;;;;8.07;2.35;;;;;;;24.75;74.85;101557.44;5294620;28;20044;-70
2022/08/21 09:51:04;;;;;;;7.95;2.47;;;;;;;24.54;69.85;101560.28;5297322;28;20039;-69
2022/08/21 09:53:42;;;;;;;6.35;2.20;;;;;;;24.50;66.11;101555.34;5298361;28;20491;-70
2022/08/21 09:59:24;;;;;;;8.85;2.63;;;;;;;24.65;69.04;101548.97;5292905;28;20397;-70
2022/08/21 10:01:57;;;;;;;4.97;2.20;;;;;;;24.51;69.00;101550.84;5280163;28;20482;-69
2022/08/21 10:04:35;;;;;;;8.45;2.28;;;;;;;24.63;69.27;101553.72;5297592;28;20040;-70
2022/08/21 10:07:12;;;;;;;8.50;2.83;;;;;;;24.65;68.18;101543.59;5278754;28;20526;-70
2022/08/21 10:09:43;;;;;;;6.20;2.10;;;;;;;24.87;66.88;101539.69;5280144;28;20039;-70
2022/08/21 10:12:33;;;;;;;6.00;2.00;;;;;;;25.12;65.07;101537.22;5280594;28;20027;-70
2022/08/21 10:15:20;;;;;;;7.22;2.20;;;;;;;24.88;64.96;101544.00;5294278;28;20020;-69
2022/08/21 10:18:12;;;;;;;4.93;1.73;;;;;;;24.82;66.21;101546.72;5295047;28;20549;-70
2022/08/21 10:20:52;;;;;;;6.20;1.67;;;;;;;24.66;66.32;101554.13;5297322;28;20240;-70
2022/08/21 10:23:27;;;;;;;5.03;1.70;;;;;;;24.34;64.25;101554.91;5280205;28;20310;-70
2022/08/21 10:26:14;;;;;;;6.03;2.58;;;;;;;24.45;64.31;101549.78;5299158;28;20024;-70
2022/08/21 10:28:57;;;;;;;6.68;2.33;;;;;;;24.62;64.34;101546.69;5298764;28;20477;-71
2022/08/21 10:31:42;;;;;;;6.63;2.05;;;;;;;24.63;61.72;101543.00;5298631;28;20085;-70
2022/08/21 10:34:51;;;;;;;6.00;2.10;;;;;;;24.90;59.96;101547.31;5290144;28;20286;-70
2022/08/21 10:37:37;;;;;;;5.28;1.90;;;;;;;24.59;58.84;101550.63;5268505;28;20398;-72
2022/08/21 10:40:38;;;;;;;3.58;1.85;;;;;;;24.80;59.86;101543.41;5297875;28;21166;-70
2022/08/21 10:43:49;;;;;;;5.15;1.73;;;;;;;25.05;61.79;101543.59;5280215;28;20028;-70
2022/08/21 10:46:39;;;;;;;5.75;1.92;;;;;;;24.97;60.51;101553.50;5295079;28;20035;-72
2022/08/21 10:49:22;;;;;;;5.03;1.83;;;;;;;25.29;60.45;101544.78;5297550;28;20044;-71
2022/08/21 10:52:06;;;;;;;6.50;2.25;;;;;;;25.36;60.92;101540.25;5298359;28;20027;-70
2022/08/21 10:54:50;;;;;;;6.85;2.40;;;;;;;25.23;60.38;101541.13;5297261;28;20046;-71
2022/08/21 10:57:32;;;;;;;6.10;2.10;;;;;;;25.24;60.03;101535.53;5290490;28;20036;-71
2022/08/21 11:00:13;;;;;;;4.97;2.13;;;;;;;25.21;57.85;101532.44;5297378;28;20024;-70
2022/08/21 11:03:05;;;;;;;5.65;2.13;;;;;;;25.29;59.89;101534.06;5297081;28;20428;-70
2022/08/21 11:05:57;;;;;;;6.28;2.20;;;;;;;25.29;59.85;101536.75;5279093;28;20024;-70
2022/08/21 11:08:42;;;;;;;7.07;2.17;;;;;;;25.23;60.67;101541.13;5297381;28;20107;-71
2022/08/21 11:11:27;;;;;;;6.78;2.15;;;;;;;25.26;59.93;101538.00;5299124;28;20023;-70
2022/08/21 11:14:11;;;;;;;7.60;2.10;;;;;;;25.06;60.36;101534.50;5296795;28;20410;-70
2022/08/21 11:16:51;;;;;;;5.97;2.15;;;;;;;25.28;60.56;101530.56;5296753;28;20080;-70
2022/08/21 11:19:34;;;;;;;5.93;2.08;;;;;;;25.49;58.67;101534.81;5296672;28;20480;-71
2022/08/21 11:22:15;;;;;;;6.40;2.08;;;;;;;25.60;57.75;101533.34;5278496;28;20028;-70
2022/08/21 11:25:00;;;;;;;5.88;2.47;;;;;;;25.94;57.15;101527.63;5294347;28;20051;-70
2022/08/21 11:27:50;;;;;;;5.68;2.60;;;;;;;25.94;56.28;101532.97;5267429;28;20491;-70
2022/08/21 11:30:26;;;;;;;5.32;2.13;;;;;;;25.94;53.26;101527.63;5296876;28;20032;-71
2022/08/21 11:33:18;;;;;;;7.10;2.10;;;;;;;26.22;55.38;101523.75;5278726;28;20027;-71
2022/08/21 11:35:49;;;;;;;5.53;1.90;;;;;;;26.15;51.99;101523.78;5294936;28;20026;-72
2022/08/21 11:38:41;;;;;;;6.93;2.00;;;;;;;26.67;53.20;101520.94;5288585;28;20020;-70
2022/08/21 11:41:27;;;;;;;6.80;2.00;;;;;;;26.43;50.99;101525.22;5296659;28;20016;-70
2022/08/21 11:44:23;;;;;;;7.65;2.47;;;;;;;26.64;48.61;101527.56;5297026;28;20059;-71
2022/08/21 11:47:34;;;;;;;5.00;1.70;;;;;;;26.79;47.04;101521.84;5278216;28;20036;-70
2022/08/21 11:50:27;;;;;;;5.75;1.80;;;;;;;26.56;47.77;101533.22;5272998;28;20148;-70
2022/08/21 11:53:13;;;;;;;6.95;2.10;;;;;;;26.58;45.08;101531.13;5275124;28;20029;-71
2022/08/21 11:56:08;;;;;;;6.85;2.10;;;;;;;27.01;47.40;101543.78;5275511;28;20451;-71